createdAt,value
2018-12-02T00:00:52.404Z,5.80
2018-12-02T00:03:21.402Z,5.80
2018-12-02T00:05:50.514Z,5.90
2018-12-02T00:08:19.684Z,5.80
2018-12-02T00:10:48.583Z,5.80
2018-12-02T00:13:17.952Z,5.90
2018-12-02T00:15:46.458Z,5.80
2018-12-02T00:18:15.474Z,5.80
2018-12-02T00:20:45.633Z,5.80
2018-12-02T00:23:14.188Z,5.80
2018-12-02T00:25:42.685Z,5.90
2018-12-02T00:28:13.036Z,5.80
2018-12-02T00:30:42.156Z,5.80
2018-12-02T00:33:10.669Z,5.80
2018-12-02T00:35:39.156Z,5.80
2018-12-02T00:38:08.794Z,5.80
2018-12-02T00:40:37.933Z,5.80
2018-12-02T00:43:09.322Z,5.80
2018-12-02T00:45:40.274Z,5.80
2018-12-02T00:48:09.975Z,5.80
2018-12-02T00:50:39.153Z,5.80
2018-12-02T00:53:09.678Z,5.80
2018-12-02T00:55:40.365Z,5.80
2018-12-02T00:58:09.560Z,5.80
2018-12-02T01:00:38.346Z,5.80
2018-12-02T01:03:08.869Z,5.80
2018-12-02T01:05:37.406Z,5.80
2018-12-02T01:08:08.530Z,5.80
2018-12-02T01:10:38.142Z,5.70
2018-12-02T01:13:12.331Z,5.70
2018-12-02T01:15:42.418Z,5.70
2018-12-02T01:18:11.974Z,5.80
2018-12-02T01:20:41.224Z,5.80
2018-12-02T01:23:09.748Z,5.80
2018-12-02T01:25:38.205Z,5.80
2018-12-02T01:28:08.616Z,5.80
2018-12-02T01:30:38.836Z,5.80
2018-12-02T01:33:07.390Z,5.80
2018-12-02T01:35:36.322Z,5.80
2018-12-02T01:38:05.433Z,5.80
2018-12-02T01:40:35.159Z,5.80
2018-12-02T01:43:03.637Z,5.80
2018-12-02T01:45:32.129Z,5.80
2018-12-02T01:48:01.273Z,5.90
2018-12-02T01:50:30.522Z,5.90
2018-12-02T01:52:59.031Z,5.90
2018-12-02T01:55:28.073Z,5.90
2018-12-02T01:57:56.891Z,5.90
2018-12-02T02:00:27.269Z,5.90
2018-12-02T02:02:56.632Z,5.90
2018-12-02T02:05:26.083Z,5.90
2018-12-02T02:07:55.252Z,5.90
2018-12-02T02:10:28.122Z,5.90
2018-12-02T02:12:57.925Z,5.90
2018-12-02T02:15:26.444Z,5.90
2018-12-02T02:17:56.883Z,5.90
2018-12-02T02:20:26.849Z,5.90
2018-12-02T02:22:56.157Z,5.90
2018-12-02T02:25:24.794Z,5.90
2018-12-02T02:27:55.327Z,5.90
2018-12-02T02:30:28.299Z,5.90
2018-12-02T02:32:56.790Z,5.90
2018-12-02T02:35:25.317Z,6.00
2018-12-02T02:37:59.130Z,6.00
2018-12-02T02:40:32.109Z,6.00
2018-12-02T02:43:01.946Z,6.00
2018-12-02T02:45:35.515Z,6.00
2018-12-02T02:48:05.482Z,5.90
2018-12-02T02:50:34.531Z,5.90
2018-12-02T02:53:03.128Z,6.00
2018-12-02T02:55:31.625Z,6.00
2018-12-02T02:58:00.704Z,6.00
2018-12-02T03:00:29.710Z,6.00
2018-12-02T03:02:58.212Z,6.00
2018-12-02T03:05:26.707Z,6.00
2018-12-02T03:07:55.852Z,6.00
2018-12-02T03:10:24.800Z,6.00
2018-12-02T03:12:55.910Z,6.10
2018-12-02T03:15:24.783Z,6.10
2018-12-02T03:17:53.946Z,6.10
2018-12-02T03:20:23.548Z,6.10
2018-12-02T03:22:55.016Z,6.10
2018-12-02T03:25:25.324Z,6.10
2018-12-02T03:27:55.244Z,6.10
2018-12-02T03:30:25.408Z,6.10
2018-12-02T03:32:54.277Z,6.20
2018-12-02T03:35:23.673Z,6.20
2018-12-02T03:37:53.848Z,6.20
2018-12-02T03:40:24.833Z,6.20
2018-12-02T03:42:54.601Z,6.20
2018-12-02T03:45:39.375Z,6.20
2018-12-02T03:48:08.660Z,6.30
2018-12-02T03:50:37.810Z,6.20
2018-12-02T03:53:06.386Z,6.20
2018-12-02T03:55:34.867Z,6.30
2018-12-02T03:58:04.238Z,6.30
2018-12-02T04:00:33.230Z,6.30
2018-12-02T04:03:01.651Z,6.30
2018-12-02T04:05:30.254Z,6.30
2018-12-02T04:07:59.056Z,6.30
2018-12-02T04:10:28.077Z,6.30
2018-12-02T04:12:59.423Z,6.30
2018-12-02T04:15:28.000Z,6.30
2018-12-02T04:17:58.269Z,6.30
2018-12-02T04:20:27.832Z,6.30
2018-12-02T04:22:56.354Z,6.30
2018-12-02T04:25:27.036Z,6.30
2018-12-02T04:27:56.131Z,6.30
2018-12-02T04:30:24.837Z,6.30
2018-12-02T04:32:53.995Z,6.30
2018-12-02T04:35:24.760Z,6.30
2018-12-02T04:37:54.095Z,6.30
2018-12-02T04:40:23.583Z,6.30
2018-12-02T04:42:55.369Z,6.30
2018-12-02T04:45:23.856Z,6.30
2018-12-02T04:47:53.901Z,6.30
2018-12-02T04:50:24.701Z,6.30
2018-12-02T04:52:53.820Z,6.30
2018-12-02T04:55:22.336Z,6.30
2018-12-02T04:57:51.560Z,6.30
2018-12-02T05:00:20.995Z,6.20
2018-12-02T05:02:51.369Z,6.20
2018-12-02T05:05:22.622Z,6.30
2018-12-02T05:07:51.783Z,6.30
2018-12-02T05:10:21.276Z,6.20
2018-12-02T05:12:50.836Z,6.20
2018-12-02T05:15:21.478Z,6.20
2018-12-02T05:17:50.626Z,6.20
2018-12-02T05:20:20.468Z,6.20
2018-12-02T05:22:51.254Z,6.20
2018-12-02T05:25:21.269Z,6.20
2018-12-02T05:27:50.413Z,6.20
2018-12-02T05:30:22.440Z,6.20
2018-12-02T05:32:52.100Z,6.20
2018-12-02T05:35:20.626Z,6.20
2018-12-02T05:37:49.469Z,6.20
2018-12-02T05:40:23.373Z,6.20
2018-12-02T05:42:53.126Z,6.20
2018-12-02T05:45:22.625Z,6.20
2018-12-02T05:47:51.462Z,6.20
2018-12-02T05:50:23.466Z,6.20
2018-12-02T05:52:55.258Z,6.20
2018-12-02T05:55:25.090Z,6.20
2018-12-02T05:57:54.208Z,6.20
2018-12-02T06:00:23.794Z,6.20
2018-12-02T06:02:52.259Z,6.20
2018-12-02T06:05:20.721Z,6.20
2018-12-02T06:07:50.099Z,6.20
2018-12-02T06:10:20.997Z,6.20
2018-12-02T06:12:49.449Z,6.20
2018-12-02T06:15:19.495Z,6.20
2018-12-02T06:17:48.817Z,6.20
2018-12-02T06:20:23.929Z,6.30
2018-12-02T06:22:54.403Z,6.30
2018-12-02T06:25:22.909Z,6.30
2018-12-02T06:27:55.826Z,6.30
2018-12-02T06:30:27.387Z,6.30
2018-12-02T06:32:59.374Z,6.40
2018-12-02T06:35:27.902Z,6.40
2018-12-02T06:37:58.938Z,6.40
2018-12-02T06:40:28.868Z,6.40
2018-12-02T06:42:57.402Z,6.40
2018-12-02T06:45:25.891Z,6.40
2018-12-02T06:47:55.001Z,6.50
2018-12-02T06:50:25.733Z,6.50
2018-12-02T06:52:55.107Z,6.50
2018-12-02T06:55:36.018Z,6.50
2018-12-02T06:58:15.358Z,6.50
2018-12-02T07:01:00.019Z,6.50
2018-12-02T07:03:38.092Z,6.50
2018-12-02T07:06:07.635Z,6.50
2018-12-02T07:08:36.170Z,6.50
2018-12-02T07:11:05.141Z,6.50
2018-12-02T07:13:33.621Z,6.60
2018-12-02T07:16:02.467Z,6.60
2018-12-02T07:18:34.787Z,6.60
2018-12-02T07:21:10.046Z,6.50
2018-12-02T07:23:42.311Z,6.50
2018-12-02T07:26:15.312Z,6.50
2018-12-02T07:28:44.382Z,6.50
2018-12-02T07:31:13.325Z,6.50
2018-12-02T07:33:42.561Z,6.50
2018-12-02T07:36:11.349Z,6.50
2018-12-02T07:38:51.893Z,6.50
2018-12-02T07:41:20.696Z,6.50
2018-12-02T07:43:49.147Z,6.50
2018-12-02T07:46:18.280Z,6.50
2018-12-02T07:48:49.813Z,6.50
2018-12-02T07:51:18.730Z,6.50
2018-12-02T07:53:47.209Z,6.50
2018-12-02T07:56:17.493Z,6.50
2018-12-02T07:58:45.963Z,6.40
2018-12-02T08:01:15.951Z,6.40
2018-12-02T08:03:47.080Z,6.50
2018-12-02T08:06:15.962Z,6.50
2018-12-02T08:08:45.118Z,6.50
2018-12-02T08:11:13.978Z,6.50
2018-12-02T08:13:46.407Z,6.50
2018-12-02T08:16:16.062Z,6.50
2018-12-02T08:18:45.425Z,6.50
2018-12-02T08:21:14.311Z,6.50
2018-12-02T08:23:43.448Z,6.50
2018-12-02T08:26:12.438Z,6.50
2018-12-02T08:28:41.471Z,6.50
2018-12-02T08:31:10.813Z,6.50
2018-12-02T08:33:40.306Z,6.40
2018-12-02T08:36:09.110Z,6.50
2018-12-02T08:38:39.717Z,6.40
2018-12-02T08:41:09.546Z,6.40
2018-12-02T08:43:38.106Z,6.40
2018-12-02T08:46:07.126Z,6.50
2018-12-02T08:48:36.761Z,6.50
2018-12-02T08:51:24.648Z,6.50
2018-12-02T08:53:53.317Z,6.50
2018-12-02T08:56:22.144Z,6.50
2018-12-02T08:58:51.082Z,6.50
2018-12-02T09:01:21.057Z,6.50
2018-12-02T09:03:50.295Z,6.50
2018-12-02T09:06:19.642Z,6.60
2018-12-02T09:08:48.360Z,6.60
2018-12-02T09:11:17.309Z,6.60
2018-12-02T09:13:45.876Z,6.60
2018-12-02T09:16:15.075Z,6.60
2018-12-02T09:18:44.714Z,6.60
2018-12-02T09:21:13.665Z,6.60
2018-12-02T09:23:47.238Z,6.70
2018-12-02T09:26:12.330Z,6.70
2018-12-02T09:28:41.556Z,6.70
2018-12-02T09:32:02.780Z,6.70
2018-12-02T09:34:32.237Z,6.70
2018-12-02T09:37:02.090Z,6.70
2018-12-02T09:39:31.023Z,6.70
2018-12-02T09:41:59.610Z,6.70
2018-12-02T09:44:28.238Z,6.80
2018-12-02T09:46:57.408Z,6.80
2018-12-02T09:49:27.502Z,6.80
2018-12-02T09:51:56.789Z,6.80
2018-12-02T09:54:28.334Z,6.80
2018-12-02T09:56:58.639Z,6.80
2018-12-02T09:59:28.831Z,6.80
2018-12-02T10:01:58.181Z,6.80
2018-12-02T10:04:27.421Z,6.90
2018-12-02T10:06:56.257Z,6.80
2018-12-02T10:09:25.900Z,6.80
2018-12-02T10:11:56.981Z,6.80
2018-12-02T10:14:26.144Z,6.80
2018-12-02T10:16:56.495Z,6.90
2018-12-02T10:19:26.003Z,6.90
2018-12-02T10:21:54.547Z,6.90
2018-12-02T10:24:23.651Z,6.90
2018-12-02T10:26:52.937Z,6.90
2018-12-02T10:29:22.295Z,6.90
2018-12-02T10:31:51.487Z,7.00
2018-12-02T10:34:20.475Z,7.00
2018-12-02T10:36:50.776Z,7.00
2018-12-02T10:39:24.869Z,7.00
2018-12-02T10:41:54.820Z,7.00
2018-12-02T10:44:40.590Z,7.00
2018-12-02T10:48:07.562Z,7.10
2018-12-02T10:50:37.433Z,7.10
2018-12-02T10:53:09.810Z,7.10
2018-12-02T10:55:54.762Z,7.10
2018-12-02T10:58:27.800Z,7.10
2018-12-02T11:01:02.781Z,7.10
2018-12-02T11:03:32.088Z,7.10
2018-12-02T11:06:01.868Z,7.20
2018-12-02T11:08:30.905Z,7.20
2018-12-02T11:11:00.347Z,7.30
2018-12-02T11:13:28.855Z,7.30
2018-12-02T11:15:58.608Z,7.40
2018-12-02T11:18:30.281Z,7.40
2018-12-02T11:21:12.021Z,7.50
2018-12-02T11:23:41.369Z,7.50
2018-12-02T11:26:10.417Z,7.50
2018-12-02T11:28:39.695Z,7.60
2018-12-02T11:31:08.643Z,7.60
2018-12-02T11:33:37.480Z,7.60
2018-12-02T11:36:06.773Z,7.60
2018-12-02T11:38:35.337Z,7.60
2018-12-02T11:41:04.378Z,7.70
2018-12-02T11:43:33.898Z,7.70
2018-12-02T11:46:02.734Z,7.80
2018-12-02T11:48:31.195Z,7.80
2018-12-02T11:51:00.602Z,7.90
2018-12-02T11:53:29.912Z,7.90
2018-12-02T11:55:59.271Z,8.00
2018-12-02T11:58:28.318Z,8.00
2018-12-02T12:00:57.323Z,8.00
2018-12-02T12:03:29.801Z,8.00
2018-12-02T12:05:58.523Z,8.00
2018-12-02T12:08:29.528Z,8.00
2018-12-02T12:11:18.411Z,8.00
2018-12-02T12:13:58.321Z,8.00
2018-12-02T12:16:27.636Z,8.00
2018-12-02T12:18:56.103Z,8.00
2018-12-02T12:21:25.922Z,8.00
2018-12-02T12:23:54.487Z,7.90
2018-12-02T12:26:24.707Z,7.90
2018-12-02T12:29:04.365Z,7.90
2018-12-02T12:31:38.262Z,7.90
2018-12-02T12:34:15.526Z,7.90
2018-12-02T12:36:44.701Z,8.00
2018-12-02T12:39:13.733Z,8.00
2018-12-02T12:41:42.519Z,7.90
2018-12-02T12:44:12.154Z,7.90
2018-12-02T12:46:41.529Z,7.90
2018-12-02T12:49:11.365Z,7.90
2018-12-02T12:51:39.967Z,7.90
2018-12-02T12:54:08.831Z,7.90
2018-12-02T12:56:39.056Z,7.90
2018-12-02T12:59:07.972Z,7.90
2018-12-02T13:01:37.824Z,7.90
2018-12-02T13:04:06.906Z,7.90
2018-12-02T13:06:35.913Z,7.80
2018-12-02T13:09:07.099Z,7.80
2018-12-02T13:11:35.671Z,7.80
2018-12-02T13:14:04.249Z,7.90
2018-12-02T13:16:32.770Z,7.90
2018-12-02T13:19:02.307Z,7.90
2018-12-02T13:21:31.244Z,7.90
2018-12-02T13:24:00.148Z,7.90
2018-12-02T13:26:29.197Z,8.00
2018-12-02T13:29:00.467Z,8.00
2018-12-02T13:31:29.777Z,8.10
2018-12-02T13:33:58.852Z,8.20
2018-12-02T13:36:29.442Z,8.30
2018-12-02T13:38:58.252Z,8.30
2018-12-02T13:41:27.650Z,8.40
2018-12-02T13:43:57.433Z,8.40
2018-12-02T13:46:27.364Z,8.50
2018-12-02T13:48:58.138Z,8.50
2018-12-02T13:51:27.751Z,8.50
2018-12-02T13:54:01.745Z,8.60
2018-12-02T13:56:30.967Z,8.50
2018-12-02T13:58:59.885Z,8.60
2018-12-02T14:01:29.062Z,8.60
2018-12-02T14:04:00.771Z,8.60
2018-12-02T14:06:29.652Z,8.60
2018-12-02T14:08:58.625Z,8.50
2018-12-02T14:11:28.015Z,8.50
2018-12-02T14:13:59.306Z,8.60
2018-12-02T14:17:04.651Z,8.70
2018-12-02T14:19:34.458Z,8.60
2018-12-02T14:22:02.843Z,8.70
2018-12-02T14:24:32.412Z,8.80
2018-12-02T14:27:01.707Z,8.90
2018-12-02T14:29:38.240Z,9.00
2018-12-02T14:32:12.337Z,9.10
2018-12-02T14:34:41.604Z,9.20
2018-12-02T14:37:11.773Z,9.20
2018-12-02T14:39:41.231Z,9.30
2018-12-02T14:42:10.614Z,9.40
2018-12-02T14:44:39.104Z,9.60
2018-12-02T14:47:09.782Z,9.70
2018-12-02T14:49:38.807Z,9.70
2018-12-02T14:52:07.322Z,9.90
2018-12-02T14:54:35.890Z,10.00
2018-12-02T14:57:05.171Z,10.20
2018-12-02T14:59:34.980Z,10.30
2018-12-02T15:02:03.484Z,10.40
2018-12-02T15:04:34.017Z,10.50
2018-12-02T15:07:03.252Z,10.50
2018-12-02T15:09:32.036Z,10.50
2018-12-02T15:12:01.391Z,10.60
2018-12-02T15:14:29.894Z,10.60
2018-12-02T15:17:00.084Z,10.60
2018-12-02T15:19:28.970Z,10.60
2018-12-02T15:21:58.170Z,10.60
2018-12-02T15:24:26.670Z,10.70
2018-12-02T15:26:57.625Z,10.60
2018-12-02T15:29:28.973Z,10.60
2018-12-02T15:31:57.429Z,10.70
2018-12-02T15:34:28.676Z,10.70
2018-12-02T15:36:58.358Z,10.70
2018-12-02T15:39:27.434Z,10.70
2018-12-02T15:41:56.050Z,10.70
2018-12-02T15:44:24.501Z,10.70
2018-12-02T15:46:53.190Z,10.70
2018-12-02T15:49:22.196Z,10.70
2018-12-02T15:51:50.710Z,10.60
2018-12-02T15:54:19.669Z,10.60
2018-12-02T15:56:49.358Z,10.50
2018-12-02T15:59:19.578Z,10.40
2018-12-02T16:01:48.908Z,10.40
2018-12-02T16:04:18.888Z,10.30
2018-12-02T16:06:50.023Z,10.20
2018-12-02T16:09:19.455Z,10.20
2018-12-02T16:11:50.870Z,10.10
2018-12-02T16:14:23.033Z,10.10
2018-12-02T16:16:53.035Z,10.20
2018-12-02T16:19:36.381Z,10.20
2018-12-02T16:22:05.720Z,10.40
2018-12-02T16:24:37.884Z,10.50
2018-12-02T16:27:08.545Z,10.60
2018-12-02T16:29:43.636Z,10.70
2018-12-02T16:32:13.847Z,10.80
2018-12-02T16:34:43.378Z,10.90
2018-12-02T16:37:12.382Z,10.90
2018-12-02T16:39:42.107Z,10.90
2018-12-02T16:42:11.572Z,11.00
2018-12-02T16:44:44.822Z,11.00
2018-12-02T16:47:17.374Z,11.00
2018-12-02T16:49:47.777Z,11.10
2018-12-02T16:52:21.681Z,11.10
2018-12-02T16:54:52.061Z,11.10
2018-12-02T16:57:22.137Z,11.10
2018-12-02T16:59:53.092Z,11.10
2018-12-02T17:02:21.609Z,11.10
2018-12-02T17:04:50.887Z,11.10
2018-12-02T17:07:19.841Z,11.20
2018-12-02T17:09:49.561Z,11.20
2018-12-02T17:12:25.543Z,11.20
2018-12-02T17:14:54.119Z,11.20
2018-12-02T17:17:23.034Z,11.20
2018-12-02T17:19:52.675Z,11.20
2018-12-02T17:22:21.174Z,11.20
2018-12-02T17:24:50.355Z,11.20
2018-12-02T17:27:20.835Z,11.20
2018-12-02T17:30:07.340Z,11.10
2018-12-02T17:33:19.665Z,11.20
2018-12-02T17:36:05.508Z,11.20
2018-12-02T17:38:35.242Z,11.20
2018-12-02T17:41:19.447Z,11.10
2018-12-02T17:44:11.836Z,11.20
2018-12-02T17:47:06.743Z,11.20
2018-12-02T17:49:36.367Z,11.10
2018-12-02T17:52:11.010Z,11.10
2018-12-02T17:54:43.177Z,11.10
2018-12-02T18:00:56.808Z,11.10
2018-12-02T18:03:32.532Z,11.10
2018-12-02T18:06:01.810Z,11.20
2018-12-02T18:08:30.318Z,11.20
2018-12-02T18:10:59.984Z,11.20
2018-12-02T18:13:32.691Z,11.20
2018-12-02T18:16:01.724Z,11.20
2018-12-02T18:18:32.177Z,11.20
2018-12-02T18:21:01.086Z,11.20
2018-12-02T18:23:38.411Z,11.20
2018-12-02T18:26:10.335Z,11.30
2018-12-02T18:28:39.593Z,11.30
2018-12-02T18:31:08.682Z,11.30
2018-12-02T18:33:37.270Z,11.40
2018-12-02T18:36:19.307Z,11.40
2018-12-02T18:38:48.774Z,11.40
2018-12-02T18:41:20.930Z,11.40
2018-12-02T18:43:49.497Z,11.40
2018-12-02T18:46:19.453Z,11.40
2018-12-02T18:48:47.970Z,11.40
2018-12-02T18:51:17.233Z,11.40
2018-12-02T18:53:46.375Z,11.40
2018-12-02T18:56:16.822Z,11.40
2018-12-02T18:58:45.329Z,11.40
2018-12-02T19:01:14.225Z,11.40
2018-12-02T19:03:42.812Z,11.40
2018-12-02T19:06:12.366Z,11.40
2018-12-02T19:08:41.022Z,11.50
2018-12-02T19:11:11.814Z,11.50
2018-12-02T19:13:43.568Z,11.50
2018-12-02T19:16:09.472Z,11.40
2018-12-02T19:18:38.788Z,11.40
2018-12-02T19:21:15.321Z,11.30
2018-12-02T19:23:43.885Z,11.40
2018-12-02T19:26:14.144Z,11.30
2018-12-02T19:28:42.844Z,11.30
2018-12-02T19:31:12.129Z,11.20
2018-12-02T19:33:41.327Z,11.20
2018-12-02T19:36:33.758Z,11.10
2018-12-02T19:39:03.512Z,11.10
2018-12-02T19:41:32.137Z,11.00
2018-12-02T19:44:00.832Z,11.10
2018-12-02T19:46:30.573Z,11.00
2018-12-02T19:48:59.522Z,11.00
2018-12-02T19:51:29.091Z,10.90
2018-12-02T19:53:59.320Z,11.00
2018-12-02T19:56:28.505Z,10.90
2018-12-02T19:58:58.131Z,10.90
2018-12-02T20:01:28.013Z,10.90
2018-12-02T20:03:57.505Z,10.90
2018-12-02T20:06:26.715Z,10.90
2018-12-02T20:08:55.331Z,10.90
2018-12-02T20:11:25.742Z,10.90
2018-12-02T20:13:55.066Z,10.90
2018-12-02T20:16:24.833Z,10.80
2018-12-02T20:18:54.085Z,10.80
2018-12-02T20:21:24.316Z,10.80
2018-12-02T20:23:58.229Z,10.80
2018-12-02T20:26:27.091Z,10.80
2018-12-02T20:28:58.458Z,10.90
2018-12-02T20:31:29.407Z,10.80
2018-12-02T20:33:58.110Z,10.80
2018-12-02T20:36:27.948Z,10.70
2018-12-02T20:38:57.697Z,10.70
2018-12-02T20:41:26.205Z,10.60
2018-12-02T20:43:54.751Z,10.60
2018-12-02T20:46:23.993Z,10.50
2018-12-02T20:48:53.592Z,10.50
2018-12-02T20:51:23.413Z,10.50
2018-12-02T20:54:11.917Z,10.50
2018-12-02T20:57:14.350Z,10.50
2018-12-02T20:59:44.073Z,10.50
2018-12-02T21:02:12.555Z,10.50
2018-12-02T21:04:41.032Z,10.50
2018-12-02T21:07:10.198Z,10.50
2018-12-02T21:09:47.399Z,10.60
2018-12-02T21:12:15.917Z,10.60
2018-12-02T21:14:48.456Z,10.60
2018-12-02T21:17:19.932Z,10.50
2018-12-02T21:19:49.298Z,10.50
2018-12-02T21:22:19.611Z,10.40
2018-12-02T21:24:48.159Z,10.40
2018-12-02T21:27:17.264Z,10.40
2018-12-02T21:29:47.195Z,10.30
2018-12-02T21:32:16.382Z,10.20
2018-12-02T21:34:44.898Z,10.20
2018-12-02T21:37:14.377Z,10.10
2018-12-02T21:39:43.468Z,10.10
2018-12-02T21:42:12.256Z,10.10
2018-12-02T21:44:40.760Z,10.10
2018-12-02T21:47:10.109Z,10.10
2018-12-02T21:49:39.857Z,10.10
2018-12-02T21:52:09.887Z,10.10
2018-12-02T21:54:38.574Z,10.10
2018-12-02T21:57:08.534Z,10.10
2018-12-02T21:59:37.352Z,10.00
2018-12-02T22:02:06.763Z,10.10
2018-12-02T22:04:42.748Z,10.00
2018-12-02T22:07:12.418Z,10.00
2018-12-02T22:09:41.953Z,10.00
2018-12-02T22:12:10.481Z,10.00
2018-12-02T22:14:39.427Z,10.10
2018-12-02T22:17:08.630Z,10.10
2018-12-02T22:19:38.467Z,10.00
2018-12-02T22:22:09.759Z,10.10
2018-12-02T22:24:38.831Z,10.10
2018-12-02T22:27:07.672Z,10.10
2018-12-02T22:29:37.286Z,10.10
2018-12-02T22:32:06.285Z,10.10
2018-12-02T22:34:34.752Z,10.20
2018-12-02T22:37:10.924Z,10.20
2018-12-02T22:39:40.901Z,10.20
2018-12-02T22:42:10.184Z,10.20
2018-12-02T22:44:39.786Z,10.20
2018-12-02T22:47:08.898Z,10.20
2018-12-02T22:49:37.883Z,10.30
2018-12-02T22:52:06.410Z,10.30
2018-12-02T22:54:36.061Z,10.30
2018-12-02T22:57:07.656Z,10.30
2018-12-02T22:59:37.266Z,10.30
2018-12-02T23:02:11.498Z,10.30
2018-12-02T23:04:40.636Z,10.30
2018-12-02T23:07:09.939Z,10.30
2018-12-02T23:09:39.683Z,10.30
2018-12-02T23:12:09.373Z,10.30
2018-12-02T23:14:37.912Z,10.30
2018-12-02T23:17:24.569Z,10.30
2018-12-02T23:19:53.832Z,10.30
2018-12-02T23:22:23.746Z,10.30
2018-12-02T23:24:53.294Z,10.30
2018-12-02T23:27:22.439Z,10.20
2018-12-02T23:29:51.330Z,10.30
2018-12-02T23:32:20.390Z,10.30
2018-12-02T23:34:50.024Z,10.30
2018-12-02T23:37:20.644Z,10.30
2018-12-02T23:39:48.259Z,10.30
2018-12-02T23:42:17.197Z,10.30
2018-12-02T23:44:45.694Z,10.30
2018-12-02T23:47:14.777Z,10.30
2018-12-02T23:49:44.333Z,10.30
2018-12-02T23:52:13.409Z,10.30
2018-12-02T23:54:42.053Z,10.30
2018-12-02T23:57:11.808Z,10.30
2018-12-02T23:59:40.673Z,10.30
